createdAt,value
2022-08-05T00:00:18.713Z,4.75
2022-08-05T00:02:50.835Z,5.00
2022-08-05T00:06:02.792Z,4.70
2022-08-05T00:08:30.821Z,4.90
2022-08-05T00:10:53.039Z,4.82
2022-08-05T00:13:19.948Z,4.63
2022-08-05T00:15:58.181Z,4.78
2022-08-05T00:18:27.270Z,4.70
2022-08-05T00:20:58.338Z,4.60
2022-08-05T00:23:44.522Z,4.38
2022-08-05T00:26:12.503Z,5.13
2022-08-05T00:28:39.687Z,4.70
2022-08-05T00:31:07.816Z,4.80
2022-08-05T00:34:53.693Z,4.85
2022-08-05T00:37:10.630Z,4.90
2022-08-05T00:39:13.747Z,4.63
2022-08-05T00:41:51.594Z,4.40
2022-08-05T00:44:21.739Z,4.13
2022-08-05T00:46:54.298Z,4.45
2022-08-05T00:49:32.630Z,4.55
2022-08-05T00:52:00.646Z,4.30
2022-08-05T00:54:28.210Z,4.47
2022-08-05T00:56:57.331Z,4.10
2022-08-05T00:59:24.075Z,4.40
2022-08-05T01:01:51.258Z,4.10
2022-08-05T01:04:20.263Z,4.20
2022-08-05T01:06:53.680Z,4.20
2022-08-05T01:09:22.798Z,4.22
2022-08-05T01:11:52.054Z,5.00
2022-08-05T01:14:33.597Z,4.63
2022-08-05T01:17:14.311Z,4.88
2022-08-05T01:20:01.204Z,4.72
2022-08-05T01:22:41.885Z,4.50
2022-08-05T01:25:40.726Z,5.45
2022-08-05T01:28:13.721Z,4.32
2022-08-05T01:30:53.805Z,4.60
2022-08-05T01:33:26.179Z,5.05
2022-08-05T01:35:57.619Z,5.07
2022-08-05T01:38:29.185Z,5.35
2022-08-05T01:41:01.465Z,4.95
2022-08-05T01:43:29.680Z,5.30
2022-08-05T01:45:57.679Z,5.50
2022-08-05T01:48:27.178Z,4.75
2022-08-05T01:50:56.468Z,5.00
2022-08-05T01:53:57.419Z,4.93
2022-08-05T01:58:10.810Z,5.13
2022-08-05T01:59:09.973Z,5.15
2022-08-05T02:01:39.976Z,5.50
2022-08-05T02:04:10.842Z,4.75
2022-08-05T02:06:39.423Z,5.40
2022-08-05T02:09:07.345Z,5.55
2022-08-05T02:12:10.005Z,5.60
2022-08-05T02:14:47.916Z,5.70
2022-08-05T02:18:15.225Z,5.70
2022-08-05T02:20:22.213Z,5.78
2022-08-05T02:22:56.909Z,5.40
2022-08-05T02:25:33.261Z,5.53
2022-08-05T02:28:08.589Z,4.70
2022-08-05T02:30:54.368Z,4.70
2022-08-05T02:33:36.073Z,4.68
2022-08-05T02:36:10.318Z,4.95
2022-08-05T02:38:43.303Z,5.03
2022-08-05T02:41:17.008Z,4.40
2022-08-05T02:44:02.222Z,4.30
2022-08-05T02:46:33.672Z,4.97
2022-08-05T02:49:01.852Z,4.88
2022-08-05T02:52:04.421Z,4.50
2022-08-05T02:54:36.317Z,4.35
2022-08-05T02:57:10.320Z,4.70
2022-08-05T02:59:56.246Z,4.20
2022-08-05T03:02:29.541Z,4.25
2022-08-05T03:04:57.998Z,4.32
2022-08-05T03:07:59.298Z,4.03
2022-08-05T03:10:24.587Z,3.92
2022-08-05T03:12:53.237Z,4.10
2022-08-05T03:15:23.552Z,4.20
2022-08-05T03:17:54.055Z,4.22
2022-08-05T03:20:22.197Z,4.28
2022-08-05T03:22:50.659Z,4.22
2022-08-05T03:25:33.533Z,4.10
2022-08-05T03:28:08.681Z,4.15
2022-08-05T03:30:36.819Z,4.00
2022-08-05T03:33:07.396Z,4.22
2022-08-05T03:35:40.760Z,4.40
2022-08-05T03:38:11.027Z,3.63
2022-08-05T03:40:41.127Z,4.05
2022-08-05T03:43:15.890Z,4.15
2022-08-05T03:45:59.846Z,3.75
2022-08-05T03:48:29.373Z,3.88
2022-08-05T03:52:38.671Z,3.67
2022-08-05T03:55:52.579Z,3.60
2022-08-05T03:57:16.108Z,3.67
2022-08-05T04:00:12.452Z,3.33
2022-08-05T04:02:51.953Z,3.30
2022-08-05T04:05:19.928Z,3.60
2022-08-05T04:07:58.786Z,3.38
2022-08-05T04:10:33.281Z,3.78
2022-08-05T04:13:05.672Z,3.72
2022-08-05T04:15:36.145Z,3.70
2022-08-05T04:18:06.735Z,3.53
2022-08-05T04:20:33.871Z,3.60
2022-08-05T04:23:00.781Z,3.60
2022-08-05T04:25:56.887Z,3.47
2022-08-05T04:28:15.023Z,3.72
2022-08-05T04:30:42.938Z,3.63
2022-08-05T04:33:09.762Z,3.60
2022-08-05T04:36:11.290Z,3.40
2022-08-05T04:38:39.915Z,3.10
2022-08-05T04:41:09.545Z,3.50
2022-08-05T04:43:40.602Z,3.47
2022-08-05T04:46:15.056Z,3.63
2022-08-05T04:48:58.028Z,3.72
2022-08-05T04:51:25.681Z,3.33
2022-08-05T04:53:57.188Z,3.65
2022-08-05T04:56:34.488Z,3.83
2022-08-05T04:59:21.770Z,3.83
2022-08-05T05:02:06.686Z,3.00
2022-08-05T05:04:44.137Z,3.25
2022-08-05T05:07:17.140Z,3.67
2022-08-05T05:09:44.932Z,3.58
2022-08-05T05:12:11.917Z,2.92
2022-08-05T05:14:38.700Z,3.72
2022-08-05T05:17:22.879Z,3.10
2022-08-05T05:19:52.607Z,3.20
2022-08-05T05:22:23.446Z,3.00
2022-08-05T05:24:57.134Z,3.22
2022-08-05T05:27:41.323Z,2.90
2022-08-05T05:30:15.528Z,3.20
2022-08-05T05:32:56.529Z,2.95
2022-08-05T05:35:23.423Z,3.10
2022-08-05T05:37:59.558Z,3.40
2022-08-05T05:40:28.045Z,2.92
2022-08-05T05:42:55.267Z,3.20
2022-08-05T05:45:24.683Z,3.10
2022-08-05T05:48:07.881Z,2.80
2022-08-05T05:50:41.213Z,3.30
2022-08-05T05:53:21.144Z,3.10
2022-08-05T05:55:52.141Z,3.25
2022-08-05T05:58:30.354Z,3.58
2022-08-05T06:01:13.121Z,3.08
2022-08-05T06:04:01.395Z,3.10
2022-08-05T06:06:30.807Z,3.30
2022-08-05T06:08:58.444Z,3.28
2022-08-05T06:11:26.052Z,3.10
2022-08-05T06:13:53.981Z,3.35
2022-08-05T06:16:29.281Z,3.30
2022-08-05T06:19:01.112Z,3.10
2022-08-05T06:21:37.011Z,3.15
2022-08-05T06:24:11.535Z,2.97
2022-08-05T06:29:45.347Z,3.58
2022-08-05T06:32:05.928Z,3.33
2022-08-05T06:34:48.511Z,3.95
2022-08-05T06:37:57.666Z,3.40
2022-08-05T06:40:08.266Z,3.75
2022-08-05T06:42:35.074Z,3.45
2022-08-05T06:45:05.557Z,3.70
2022-08-05T06:48:37.163Z,3.60
2022-08-05T06:50:22.460Z,3.58
2022-08-05T06:52:58.474Z,3.58
2022-08-05T06:55:36.254Z,3.40
2022-08-05T06:58:30.019Z,3.63
2022-08-05T07:00:50.769Z,3.38
2022-08-05T07:03:17.813Z,3.50
2022-08-05T07:05:46.225Z,3.45
2022-08-05T07:08:13.497Z,3.20
2022-08-05T07:10:53.023Z,3.10
2022-08-05T07:13:58.206Z,3.35
2022-08-05T07:17:58.678Z,3.08
2022-08-05T07:20:31.481Z,3.08
2022-08-05T07:22:28.405Z,3.30
2022-08-05T07:25:23.301Z,3.25
2022-08-05T07:27:56.666Z,3.25
2022-08-05T07:30:32.757Z,3.55
2022-08-05T07:33:05.350Z,3.53
2022-08-05T07:36:04.655Z,3.50
2022-08-05T07:38:26.447Z,3.90
2022-08-05T07:42:08.031Z,3.72
2022-08-05T07:43:52.446Z,4.35
2022-08-05T07:46:24.709Z,3.90
2022-08-05T07:49:01.797Z,3.33
2022-08-05T07:51:48.654Z,3.50
2022-08-05T07:54:26.306Z,3.50
2022-08-05T07:57:01.932Z,3.83
2022-08-05T07:59:41.308Z,4.50
2022-08-05T08:02:15.251Z,3.20
2022-08-05T08:04:47.687Z,3.30
2022-08-05T08:07:17.992Z,3.70
2022-08-05T08:09:45.817Z,3.75
2022-08-05T08:12:37.378Z,2.88
2022-08-05T08:15:03.423Z,3.85
2022-08-05T08:17:32.382Z,2.70
2022-08-05T08:20:42.778Z,2.25
2022-08-05T08:22:51.947Z,2.70
2022-08-05T08:25:26.883Z,2.78
2022-08-05T08:28:06.508Z,2.60
2022-08-05T08:30:47.695Z,2.70
2022-08-05T08:33:16.825Z,2.20
2022-08-05T08:35:52.817Z,2.95
2022-08-05T08:38:35.350Z,2.58
2022-08-05T08:41:06.668Z,2.10
2022-08-05T08:45:19.090Z,2.63
2022-08-05T08:46:22.889Z,2.45
2022-08-05T08:49:08.034Z,2.50
2022-08-05T08:52:03.171Z,2.42
2022-08-05T08:54:27.294Z,2.40
2022-08-05T08:56:56.470Z,2.10
2022-08-05T08:59:27.690Z,2.10
2022-08-05T09:02:02.030Z,2.30
2022-08-05T09:04:30.554Z,2.30
2022-08-05T09:06:58.723Z,2.17
2022-08-05T09:09:34.624Z,2.15
2022-08-05T09:12:14.437Z,2.00
2022-08-05T09:14:58.276Z,2.13
2022-08-05T09:17:42.323Z,2.22
2022-08-05T09:20:11.599Z,2.22
2022-08-05T09:23:19.695Z,2.03
2022-08-05T09:26:06.091Z,1.88
2022-08-05T09:28:36.323Z,1.88
2022-08-05T09:31:22.570Z,2.30
2022-08-05T09:34:01.111Z,1.80
2022-08-05T09:36:56.070Z,1.80
2022-08-05T09:39:39.212Z,1.70
2022-08-05T09:42:23.182Z,2.10
2022-08-05T09:44:56.218Z,2.10
2022-08-05T09:47:25.994Z,1.73
2022-08-05T09:50:01.247Z,2.03
2022-08-05T09:52:36.456Z,1.98
2022-08-05T09:55:56.675Z,1.80
2022-08-05T09:57:59.996Z,1.90
2022-08-05T10:00:30.506Z,1.65
2022-08-05T10:02:59.048Z,2.00
2022-08-05T10:05:28.720Z,1.80
2022-08-05T10:08:36.917Z,2.27
2022-08-05T10:10:55.476Z,2.20
2022-08-05T10:13:31.632Z,2.00
2022-08-05T10:16:37.860Z,1.80
2022-08-05T10:19:11.703Z,1.98
2022-08-05T10:21:40.124Z,1.70
2022-08-05T10:24:15.129Z,1.90
2022-08-05T10:26:48.855Z,1.60
2022-08-05T10:29:23.353Z,1.90
2022-08-05T10:33:02.200Z,1.65
2022-08-05T10:34:37.615Z,1.85
2022-08-05T10:37:08.050Z,1.60
2022-08-05T10:39:58.978Z,1.80
2022-08-05T10:42:33.848Z,2.38
2022-08-05T10:45:02.332Z,1.90
2022-08-05T10:48:30.130Z,2.00
2022-08-05T10:51:01.217Z,2.17
2022-08-05T10:53:38.116Z,1.90
2022-08-05T10:56:25.566Z,1.98
2022-08-05T10:58:55.860Z,1.95
2022-08-05T11:01:54.982Z,2.30
2022-08-05T11:04:21.415Z,2.10
2022-08-05T11:06:57.742Z,2.10
2022-08-05T11:09:32.395Z,2.22
2022-08-05T11:12:24.858Z,2.30
2022-08-05T11:15:20.516Z,2.20
2022-08-05T11:17:59.747Z,2.00
2022-08-05T11:20:38.938Z,2.00
2022-08-05T11:24:04.326Z,2.30
2022-08-05T11:26:38.212Z,2.10
2022-08-05T11:29:11.979Z,2.20
2022-08-05T11:31:58.242Z,2.10
2022-08-05T11:34:39.216Z,2.10
2022-08-05T11:38:30.245Z,2.13
2022-08-05T11:40:00.828Z,2.50
2022-08-05T11:42:32.425Z,2.00
2022-08-05T11:47:50.631Z,2.50
2022-08-05T11:50:21.761Z,2.10
2022-08-05T11:52:51.110Z,2.10
2022-08-05T11:55:19.989Z,1.88
2022-08-05T11:58:10.355Z,1.90
2022-08-05T12:00:38.043Z,1.90
2022-08-05T12:03:28.429Z,2.33
2022-08-05T12:06:05.885Z,2.10
2022-08-05T12:08:53.941Z,2.35
2022-08-05T12:11:40.244Z,2.25
2022-08-05T12:14:10.332Z,2.40
2022-08-05T12:16:45.229Z,2.20
2022-08-05T12:20:25.655Z,2.10
2022-08-05T12:21:59.874Z,2.10
2022-08-05T12:24:28.057Z,2.20
2022-08-05T12:26:56.795Z,2.25
2022-08-05T12:29:25.598Z,2.40
2022-08-05T12:31:54.743Z,2.13
2022-08-05T12:34:31.337Z,2.70
2022-08-05T12:37:10.906Z,2.10
2022-08-05T12:39:51.620Z,2.20
2022-08-05T12:42:19.932Z,2.80
2022-08-05T12:44:47.454Z,2.00
2022-08-05T12:47:26.240Z,2.20
2022-08-05T12:50:03.389Z,2.53
2022-08-05T12:52:38.917Z,2.30
2022-08-05T12:55:23.866Z,2.33
2022-08-05T12:58:48.355Z,2.38
2022-08-05T13:02:01.802Z,2.20
2022-08-05T13:03:32.550Z,1.92
2022-08-05T13:06:01.227Z,1.90
2022-08-05T13:08:32.278Z,2.30
2022-08-05T13:11:01.381Z,2.20
2022-08-05T13:14:05.134Z,2.22
2022-08-05T13:16:17.181Z,2.20
2022-08-05T13:18:59.518Z,1.90
2022-08-05T13:21:28.542Z,2.10
2022-08-05T13:24:06.287Z,1.85
2022-08-05T13:26:36.032Z,2.00
2022-08-05T13:29:02.918Z,2.00
2022-08-05T13:32:03.451Z,1.95
2022-08-05T13:34:22.728Z,1.90
2022-08-05T13:36:53.173Z,1.90
2022-08-05T13:39:24.312Z,1.92
2022-08-05T13:42:07.309Z,2.33
2022-08-05T13:44:34.641Z,2.20
2022-08-05T13:47:08.575Z,2.40
2022-08-05T13:49:35.926Z,1.88
2022-08-05T13:52:20.733Z,2.30
2022-08-05T13:54:57.369Z,1.83
2022-08-05T13:57:51.440Z,1.83
2022-08-05T14:00:14.729Z,2.00
2022-08-05T14:02:42.830Z,2.38
2022-08-05T14:05:15.427Z,2.15
2022-08-05T14:08:00.349Z,2.20
2022-08-05T14:10:35.502Z,2.40
2022-08-05T14:13:05.818Z,2.10
2022-08-05T14:16:04.881Z,2.05
2022-08-05T14:18:23.486Z,2.00
2022-08-05T14:20:55.141Z,2.00
2022-08-05T14:23:25.440Z,1.92
2022-08-05T14:25:58.718Z,1.70
2022-08-05T14:30:57.764Z,1.83
2022-08-05T14:33:24.641Z,2.05
2022-08-05T14:35:54.212Z,1.90
2022-08-05T14:38:33.364Z,2.00
2022-08-05T14:41:07.245Z,1.77
2022-08-05T14:44:01.645Z,1.92
2022-08-05T14:46:28.124Z,1.92
2022-08-05T14:48:57.747Z,2.10
2022-08-05T14:51:26.511Z,2.10
2022-08-05T14:54:28.853Z,1.90
2022-08-05T14:56:46.789Z,2.10
2022-08-05T14:59:14.329Z,1.80
2022-08-05T15:01:47.228Z,2.03
2022-08-05T15:04:17.078Z,2.25
2022-08-05T15:06:49.485Z,2.22
2022-08-05T15:09:51.387Z,1.93
2022-08-05T15:12:05.918Z,2.10
2022-08-05T15:14:35.881Z,2.00
2022-08-05T15:17:46.289Z,2.05
2022-08-05T15:19:57.144Z,2.17
2022-08-05T15:22:26.948Z,2.28
2022-08-05T15:24:55.040Z,2.42
2022-08-05T15:27:21.771Z,2.50
2022-08-05T15:29:52.327Z,2.25
2022-08-05T15:32:21.210Z,2.55
2022-08-05T15:34:54.713Z,2.42
2022-08-05T15:38:09.258Z,2.40
2022-08-05T15:41:00.573Z,2.00
2022-08-05T15:43:07.933Z,2.38
2022-08-05T15:45:45.741Z,2.40
2022-08-05T15:48:13.974Z,2.20
2022-08-05T15:50:43.574Z,2.33
2022-08-05T15:53:12.948Z,2.30
2022-08-05T15:56:02.298Z,2.30
2022-08-05T15:58:28.532Z,2.47
2022-08-05T16:01:11.919Z,2.38
2022-08-05T16:03:43.158Z,2.50
2022-08-05T16:06:11.514Z,2.50
2022-08-05T16:08:39.026Z,2.80
2022-08-05T16:11:07.139Z,2.45
2022-08-05T16:13:35.360Z,2.50
2022-08-05T16:16:05.928Z,2.70
2022-08-05T16:18:33.218Z,2.55
2022-08-05T16:21:04.283Z,2.70
2022-08-05T16:23:53.191Z,2.60
2022-08-05T16:26:18.832Z,2.83
2022-08-05T16:28:53.249Z,2.30
2022-08-05T16:31:21.702Z,2.47
2022-08-05T16:33:49.085Z,2.50
2022-08-05T16:36:17.025Z,2.17
2022-08-05T16:38:54.457Z,2.60
2022-08-05T16:42:15.179Z,2.63
2022-08-05T16:44:10.869Z,2.70
2022-08-05T16:46:41.057Z,2.78
2022-08-05T16:49:09.196Z,2.97
2022-08-05T16:51:42.597Z,2.97
2022-08-05T16:54:23.939Z,2.50
2022-08-05T16:56:54.540Z,2.40
2022-08-05T16:59:22.780Z,2.90
2022-08-05T17:01:53.884Z,2.80
2022-08-05T17:04:23.913Z,2.97
2022-08-05T17:06:55.322Z,2.70
2022-08-05T17:09:23.164Z,2.70
2022-08-05T17:11:54.661Z,2.83
2022-08-05T17:14:37.543Z,3.30
2022-08-05T17:17:06.622Z,3.10
2022-08-05T17:19:43.744Z,3.35
2022-08-05T17:22:24.381Z,2.92
2022-08-05T17:24:57.616Z,3.00
2022-08-05T17:27:27.163Z,2.90
2022-08-05T17:29:59.784Z,2.80
2022-08-05T17:32:29.338Z,2.90
2022-08-05T17:34:58.248Z,3.30
2022-08-05T17:37:41.165Z,4.30
2022-08-05T17:40:16.100Z,3.50
2022-08-05T17:42:51.978Z,3.45
2022-08-05T17:45:22.885Z,3.05
2022-08-05T17:47:54.571Z,3.13
2022-08-05T17:50:28.375Z,3.20
2022-08-05T17:52:58.942Z,3.40
2022-08-05T17:55:27.205Z,3.25
2022-08-05T17:58:02.048Z,3.55
2022-08-05T18:00:29.892Z,3.60
2022-08-05T18:02:56.975Z,3.38
2022-08-05T18:05:24.058Z,4.03
2022-08-05T18:07:55.153Z,3.80
2022-08-05T18:10:23.931Z,3.70
2022-08-05T18:12:51.210Z,4.00
2022-08-05T18:15:18.305Z,4.13
2022-08-05T18:18:00.631Z,3.72
2022-08-05T18:20:31.848Z,3.47
2022-08-05T18:23:11.335Z,3.80
2022-08-05T18:25:44.870Z,3.90
2022-08-05T18:28:17.507Z,4.18
2022-08-05T18:30:50.872Z,4.13
2022-08-05T18:33:22.650Z,3.58
2022-08-05T18:36:04.075Z,3.20
2022-08-05T18:38:37.064Z,3.28
2022-08-05T18:41:55.277Z,3.13
2022-08-05T18:43:51.965Z,3.58
2022-08-05T18:46:20.008Z,3.20
2022-08-05T18:48:51.850Z,3.33
2022-08-05T18:52:06.651Z,3.40
2022-08-05T18:54:26.308Z,3.70
2022-08-05T18:56:55.183Z,3.42
2022-08-05T18:59:43.807Z,3.42
2022-08-05T19:02:11.236Z,3.08
2022-08-05T19:05:01.118Z,3.10
2022-08-05T19:07:46.213Z,3.47
2022-08-05T19:10:14.946Z,3.63
2022-08-05T19:12:43.300Z,3.70
2022-08-05T19:15:10.589Z,3.45
2022-08-05T19:18:09.786Z,3.60
2022-08-05T19:20:41.095Z,3.90
2022-08-05T19:23:08.642Z,3.47
2022-08-05T19:26:02.163Z,3.70
2022-08-05T19:30:57.868Z,3.67
2022-08-05T19:33:35.643Z,3.20
2022-08-05T19:36:03.111Z,3.80
2022-08-05T19:38:43.680Z,4.00
2022-08-05T19:41:11.242Z,3.90
2022-08-05T19:44:05.402Z,3.90
2022-08-05T19:46:30.062Z,3.97
2022-08-05T19:49:02.816Z,3.92
2022-08-05T19:52:09.240Z,3.60
2022-08-05T19:54:26.667Z,3.33
2022-08-05T19:56:59.006Z,3.85
2022-08-05T19:59:55.889Z,4.70
2022-08-05T20:02:14.781Z,4.53
2022-08-05T20:04:45.775Z,4.95
2022-08-05T20:07:13.940Z,3.75
2022-08-05T20:09:53.721Z,3.90
2022-08-05T20:12:23.747Z,4.07
2022-08-05T20:14:52.243Z,3.33
2022-08-05T20:17:23.887Z,3.92
2022-08-05T20:19:57.054Z,4.38
2022-08-05T20:22:27.066Z,3.77
2022-08-05T20:24:55.685Z,3.70
2022-08-05T20:27:26.815Z,3.70
2022-08-05T20:29:58.330Z,3.80
2022-08-05T20:32:27.085Z,4.35
2022-08-05T20:34:54.549Z,3.83
2022-08-05T20:38:04.856Z,4.55
2022-08-05T20:40:08.943Z,4.40
2022-08-05T20:42:35.865Z,4.63
2022-08-05T20:45:03.210Z,4.65
2022-08-05T20:47:31.712Z,5.13
2022-08-05T20:49:59.724Z,5.47
2022-08-05T20:52:29.628Z,5.78
2022-08-05T20:55:54.399Z,5.50
2022-08-05T20:57:44.807Z,5.78
2022-08-05T21:00:20.864Z,5.35
2022-08-05T21:03:07.454Z,5.63
2022-08-05T21:05:47.955Z,6.30
2022-08-05T21:08:33.106Z,5.50
2022-08-05T21:11:09.831Z,5.57
2022-08-05T21:13:48.150Z,6.00
2022-08-05T21:16:30.184Z,6.40
2022-08-05T21:19:01.443Z,5.65
2022-08-05T21:21:43.881Z,5.68
2022-08-05T21:24:17.161Z,5.75
2022-08-05T21:26:58.342Z,6.05
2022-08-05T21:29:31.843Z,5.47
2022-08-05T21:31:59.937Z,6.00
2022-08-05T21:34:28.242Z,5.50
2022-08-05T21:36:58.172Z,5.20
2022-08-05T21:39:26.653Z,5.95
2022-08-05T21:42:01.910Z,5.55
2022-08-05T21:46:58.070Z,5.60
2022-08-05T21:49:56.570Z,5.63
2022-08-05T21:52:22.979Z,6.43
2022-08-05T21:54:55.413Z,6.00
2022-08-05T21:57:37.664Z,6.55
2022-08-05T22:00:11.784Z,9.10
2022-08-05T22:02:45.797Z,10.35
2022-08-05T22:05:12.922Z,10.77
2022-08-05T22:07:59.046Z,15.07
2022-08-05T22:10:29.212Z,18.77
2022-08-05T22:12:57.861Z,9.48
2022-08-05T22:16:00.411Z,11.50
2022-08-05T22:18:14.533Z,10.57
2022-08-05T22:20:41.901Z,6.88
2022-08-05T22:24:02.383Z,5.22
2022-08-05T22:26:34.863Z,5.22
2022-08-05T22:29:02.318Z,5.45
2022-08-05T22:31:30.217Z,6.63
2022-08-05T22:34:01.186Z,6.13
2022-08-05T22:36:29.388Z,6.25
2022-08-05T22:38:56.696Z,7.55
2022-08-05T22:41:26.235Z,6.25
2022-08-05T22:44:12.008Z,7.35
2022-08-05T22:46:43.203Z,6.72
2022-08-05T22:50:17.561Z,7.72
2022-08-05T22:52:06.607Z,10.27
2022-08-05T22:54:37.927Z,8.82
2022-08-05T22:57:06.751Z,8.65
2022-08-05T22:59:46.483Z,8.02
2022-08-05T23:02:29.524Z,9.55
2022-08-05T23:04:58.383Z,8.05
2022-08-05T23:07:30.399Z,10.00
2022-08-05T23:10:01.765Z,10.30
2022-08-05T23:12:33.696Z,10.73
2022-08-05T23:15:08.715Z,12.60
2022-08-05T23:17:59.672Z,9.85
2022-08-05T23:20:24.587Z,9.27
2022-08-05T23:22:55.926Z,9.73
2022-08-05T23:25:53.093Z,8.88
2022-08-05T23:28:11.982Z,10.18
2022-08-05T23:30:43.805Z,10.35
2022-08-05T23:33:21.880Z,11.57
2022-08-05T23:35:50.486Z,10.27
2022-08-05T23:38:18.055Z,10.80
2022-08-05T23:40:50.009Z,8.63
2022-08-05T23:43:25.369Z,9.57
2022-08-05T23:46:19.774Z,10.13
2022-08-05T23:49:00.895Z,8.43
2022-08-05T23:51:53.428Z,9.10
2022-08-05T23:54:38.180Z,8.98
2022-08-05T23:57:06.452Z,9.60
2022-08-05T23:59:37.726Z,7.68
